Time;durP1;ratioP1;P1;durP2;ratioP2;P2;SDS_P1;SDS_P2;PMS_P1;PMS_P2;Temp;Humidity;BMP_temperature;BMP_pressure;BME280_temperature;BME280_humidity;BME280_pressure;Samples;Min_cycle;Max_cycle;Signal;HPM_P1;HPM_P2
2022/12/20 00:01:37;;;;;;;4.35;0.15;;;19.20;50.60;;;;;;5049622;28;20728;-61
2022/12/20 00:04:05;;;;;;;4.03;0.45;;;19.20;50.70;;;;;;5049804;28;20132;-61
2022/12/20 00:06:35;;;;;;;2.42;0.20;;;19.20;50.70;;;;;;5050245;28;20146;-61
2022/12/20 00:09:05;;;;;;;0.60;0.25;;;19.20;50.90;;;;;;5049962;28;20387;-61
2022/12/20 00:11:32;;;;;;;0.60;0.28;;;19.20;50.80;;;;;;5049086;28;20080;-61
2022/12/20 00:13:59;;;;;;;0.73;0.30;;;19.20;50.90;;;;;;5050151;28;20044;-61
2022/12/20 00:16:28;;;;;;;0.47;0.35;;;19.20;50.90;;;;;;5050292;28;20045;-61
2022/12/20 00:18:57;;;;;;;0.88;0.20;;;19.20;50.90;;;;;;5049416;28;20045;-63
2022/12/20 00:21:25;;;;;;;0.20;0.10;;;19.10;50.90;;;;;;5049725;28;20088;-63
2022/12/20 00:23:54;;;;;;;1.90;0.25;;;19.20;51.10;;;;;;5049795;28;20494;-61
2022/12/20 00:26:24;;;;;;;0.30;0.30;;;19.20;51.10;;;;;;5049825;28;20045;-61
2022/12/20 00:28:51;;;;;;;0.70;0.30;;;19.20;51.20;;;;;;5049555;28;20068;-61
2022/12/20 00:31:20;;;;;;;2.17;0.20;;;19.10;51.20;;;;;;5048992;28;20049;-61
2022/12/20 00:33:48;;;;;;;1.00;0.10;;;19.20;51.20;;;;;;5049407;28;20159;-60
2022/12/20 00:36:16;;;;;;;5.38;0.43;;;19.10;51.20;;;;;;5048202;28;20041;-61
2022/12/20 00:38:45;;;;;;;0.93;0.40;;;19.10;51.30;;;;;;5048085;28;20124;-60
2022/12/20 00:41:15;;;;;;;1.77;0.20;;;19.10;51.30;;;;;;5049165;28;20148;-61
2022/12/20 00:43:42;;;;;;;0.82;0.17;;;19.10;51.30;;;;;;5049213;28;20765;-60
2022/12/20 00:46:11;;;;;;;0.20;0.10;;;19.10;51.40;;;;;;5049124;28;20045;-60
2022/12/20 00:48:38;;;;;;;1.40;0.28;;;19.10;51.40;;;;;;5047503;28;20446;-61
2022/12/20 00:51:07;;;;;;;0.45;0.10;;;19.10;51.40;;;;;;5049067;28;20041;-61
2022/12/20 00:53:36;;;;;;;0.95;0.20;;;19.10;51.50;;;;;;5049804;28;20045;-61
2022/12/20 00:56:04;;;;;;;0.32;0.20;;;19.10;51.50;;;;;;5049577;28;20127;-61
2022/12/20 00:58:34;;;;;;;0.80;0.22;;;19.00;51.50;;;;;;5049007;28;20099;-61
2022/12/20 01:01:01;;;;;;;2.92;0.17;;;19.10;51.70;;;;;;5049497;28;20045;-61
2022/12/20 01:03:30;;;;;;;1.80;0.30;;;19.10;51.70;;;;;;5049323;28;20452;-60
2022/12/20 01:05:59;;;;;;;1.80;0.30;;;19.10;51.70;;;;;;5049187;28;20049;-61
2022/12/20 01:08:27;;;;;;;1.85;0.63;;;19.10;51.80;;;;;;5048473;28;20607;-60
2022/12/20 01:11:00;;;;;;;0.43;0.43;;;19.10;51.80;;;;;;5050589;28;20134;-60
2022/12/20 01:13:27;;;;;;;0.75;0.43;;;19.10;51.80;;;;;;5049521;28;20048;-60
2022/12/20 01:15:56;;;;;;;3.55;0.28;;;19.00;51.80;;;;;;5048273;28;20044;-60
2022/12/20 01:18:23;;;;;;;2.58;0.20;;;19.00;51.70;;;;;;5047867;28;20041;-61
2022/12/20 01:21:00;;;;;;;0.68;0.10;;;19.00;51.70;;;;;;5049139;28;20051;-60
2022/12/20 01:23:27;;;;;;;3.05;0.20;;;19.00;51.70;;;;;;5048513;28;20052;-61
2022/12/20 01:25:54;;;;;;;0.20;0.20;;;19.00;51.70;;;;;;5047317;28;20049;-60
2022/12/20 01:28:21;;;;;;;1.50;0.15;;;19.00;51.70;;;;;;5047182;28;20053;-61
2022/12/20 01:30:48;;;;;;;0.22;0.20;;;19.00;51.70;;;;;;5048269;28;20036;-61
2022/12/20 01:33:17;;;;;;;0.85;0.20;;;19.00;51.80;;;;;;5048620;28;20049;-61
2022/12/20 01:35:55;;;;;;;3.45;0.20;;;19.00;51.80;;;;;;5047015;28;20168;-61
2022/12/20 01:38:22;;;;;;;0.85;0.10;;;19.00;51.90;;;;;;5048159;28;20412;-62
2022/12/20 01:40:49;;;;;;;0.73;0.20;;;19.00;51.90;;;;;;5048117;28;20843;-61
2022/12/20 01:43:18;;;;;;;1.27;0.20;;;19.00;51.90;;;;;;5045689;28;20771;-61
2022/12/20 01:45:46;;;;;;;1.13;0.10;;;19.00;51.90;;;;;;5048271;28;20099;-61
2022/12/20 01:48:16;;;;;;;1.23;0.30;;;19.00;51.90;;;;;;5047990;28;20132;-61
2022/12/20 01:50:45;;;;;;;1.85;0.20;;;19.00;51.90;;;;;;5079966;28;20048;-61
2022/12/20 01:53:12;;;;;;;1.73;0.10;;;19.00;51.90;;;;;;5052505;28;20148;-61
2022/12/20 01:55:40;;;;;;;1.40;0.30;;;19.00;51.90;;;;;;5046462;28;20048;-61
2022/12/20 01:58:10;;;;;;;0.10;0.10;;;19.00;51.90;;;;;;5046337;28;20057;-62
2022/12/20 02:00:37;;;;;;;0.17;0.10;;;19.00;52.40;;;;;;5046466;28;20124;-62
2022/12/20 02:03:07;;;;;;;1.20;0.10;;;19.00;51.90;;;;;;5046396;28;20041;-63
2022/12/20 02:05:36;;;;;;;0.40;0.17;;;19.00;51.90;;;;;;5046536;28;20041;-63
2022/12/20 02:08:06;;;;;;;0.50;0.20;;;19.00;51.90;;;;;;5047661;28;20196;-61
2022/12/20 02:10:49;;;;;;;1.00;0.20;;;19.00;52.50;;;;;;5047260;28;20084;-63
2022/12/20 02:13:25;;;;;;;1.50;0.20;;;19.00;51.90;;;;;;5046663;28;20421;-62
2022/12/20 02:15:55;;;;;;;0.88;0.10;;;19.00;51.90;;;;;;5047545;28;20476;-63
2022/12/20 02:18:25;;;;;;;0.90;0.10;;;19.00;52.50;;;;;;5047145;28;20037;-63
2022/12/20 02:21:18;;;;;;;0.98;0.20;;;19.00;51.90;;;;;;5047383;28;20136;-63
2022/12/20 02:24:31;;;;;;;0.40;0.10;;;19.00;51.80;;;;;;5047387;28;20053;-64
2022/12/20 02:27:34;;;;;;;0.25;0.10;;;19.00;51.80;;;;;;5046176;28;20128;-64
2022/12/20 02:30:09;;;;;;;1.25;0.15;;;18.90;51.70;;;;;;5045945;28;20041;-63
2022/12/20 02:32:42;;;;;;;2.42;0.20;;;18.90;51.80;;;;;;5046321;28;20472;-65
2022/12/20 02:35:13;;;;;;;0.32;0.10;;;18.90;51.80;;;;;;5046053;28;20056;-62
2022/12/20 02:37:50;;;;;;;1.10;0.30;;;18.90;51.80;;;;;;5047165;28;20045;-63
2022/12/20 02:40:23;;;;;;;0.20;0.10;;;18.90;51.80;;;;;;5045490;28;20037;-62
2022/12/20 02:42:54;;;;;;;1.00;1.00;;;18.90;51.80;;;;;;5029134;28;20056;-62
2022/12/20 02:45:24;;;;;;;0.20;0.20;;;18.90;51.80;;;;;;5045841;28;20045;-61
2022/12/20 02:47:56;;;;;;;0.35;0.17;;;18.90;51.80;;;;;;5045794;28;20051;-61
2022/12/20 02:50:28;;;;;;;0.20;0.20;;;18.90;51.70;;;;;;5045360;28;20037;-61
2022/12/20 02:52:56;;;;;;;0.85;0.20;;;18.90;51.70;;;;;;5047012;28;20703;-61
2022/12/20 02:55:31;;;;;;;0.38;0.10;;;18.90;51.80;;;;;;5046672;28;20063;-63
2022/12/20 02:58:05;;;;;;;0.32;0.10;;;18.90;51.90;;;;;;5046900;28;20047;-61
2022/12/20 03:00:40;;;;;;;0.88;0.10;;;18.90;51.90;;;;;;5046843;28;20041;-61
2022/12/20 03:03:22;;;;;;;0.65;0.20;;;18.90;52.00;;;;;;5046955;28;20091;-61
2022/12/20 03:05:51;;;;;;;0.60;0.17;;;18.90;52.00;;;;;;5047020;28;20041;-61
2022/12/20 03:08:20;;;;;;;0.88;0.20;;;18.90;52.00;;;;;;5046527;28;20033;-61
2022/12/20 03:10:49;;;;;;;0.32;0.10;;;18.90;52.00;;;;;;5045392;28;20051;-61
2022/12/20 03:13:17;;;;;;;2.25;0.40;;;18.90;52.00;;;;;;5047055;28;20581;-61
2022/12/20 03:15:51;;;;;;;0.57;0.10;;;18.90;52.00;;;;;;5045230;28;20037;-60
2022/12/20 03:18:19;;;;;;;0.13;0.10;;;18.80;51.90;;;;;;5045220;28;20052;-60
2022/12/20 03:20:46;;;;;;;1.65;0.10;;;18.80;51.90;;;;;;5045136;28;20103;-59
2022/12/20 03:23:13;;;;;;;0.40;0.20;;;18.80;51.90;;;;;;5046350;28;20068;-59
2022/12/20 03:25:40;;;;;;;1.27;0.10;;;18.80;51.80;;;;;;5045481;28;20127;-60
2022/12/20 03:28:09;;;;;;;2.00;0.10;;;18.80;51.80;;;;;;5045374;28;20044;-61
2022/12/20 03:30:36;;;;;;;0.22;0.10;;;18.80;51.70;;;;;;5045054;28;20051;-56
2022/12/20 03:33:05;;;;;;;0.73;0.10;;;18.80;51.70;;;;;;5045165;28;20132;-61
2022/12/20 03:35:32;;;;;;;0.50;0.10;;;18.80;51.80;;;;;;5046534;28;20130;-61
2022/12/20 03:37:59;;;;;;;0.63;0.10;;;18.80;51.80;;;;;;5045057;28;20412;-61
2022/12/20 03:40:26;;;;;;;0.85;0.10;;;18.80;51.80;;;;;;5045377;28;20115;-61
2022/12/20 03:42:54;;;;;;;0.45;0.10;;;18.80;51.80;;;;;;5044840;28;20574;-60
2022/12/20 03:45:21;;;;;;;0.15;0.10;;;18.80;52.40;;;;;;5046539;28;20045;-59
2022/12/20 03:47:48;;;;;;;2.13;0.10;;;18.80;51.80;;;;;;5045059;28;20131;-60
2022/12/20 03:50:17;;;;;;;0.52;0.10;;;18.80;51.90;;;;;;5044868;28;20048;-60
2022/12/20 03:52:44;;;;;;;0.50;0.08;;;18.80;51.90;;;;;;5046277;28;20446;-59
2022/12/20 03:55:12;;;;;;;1.67;0.20;;;18.80;51.90;;;;;;5060631;28;20048;-60
2022/12/20 03:57:41;;;;;;;0.22;0.10;;;18.80;51.90;;;;;;5060867;28;20052;-61
2022/12/20 04:00:22;;;;;;;0.43;0.10;;;18.80;52.00;;;;;;5042721;28;20045;-60
2022/12/20 04:02:54;;;;;;;0.60;0.10;;;18.80;52.00;;;;;;5044919;28;20068;-63
2022/12/20 04:05:24;;;;;;;0.40;0.40;;;18.70;51.90;;;;;;5045162;28;20159;-60
2022/12/20 04:07:51;;;;;;;1.63;0.30;;;18.80;51.90;;;;;;5048255;28;20053;-60
2022/12/20 04:10:18;;;;;;;0.30;0.10;;;18.70;51.90;;;;;;5049608;28;20067;-60
2022/12/20 04:12:45;;;;;;;0.50;0.30;;;18.70;51.90;;;;;;5048102;28;20045;-60
2022/12/20 04:15:15;;;;;;;2.15;0.10;;;18.80;51.90;;;;;;5048252;28;20509;-62
2022/12/20 04:17:43;;;;;;;1.65;0.47;;;18.80;51.90;;;;;;5046156;28;20037;-60
2022/12/20 04:20:24;;;;;;;0.20;0.10;;;18.80;51.90;;;;;;5044615;28;20111;-63
2022/12/20 04:23:03;;;;;;;0.10;0.10;;;18.80;52.00;;;;;;5029825;28;20057;-62
2022/12/20 04:25:31;;;;;;;1.25;0.10;;;18.70;52.00;;;;;;5048666;28;20048;-62
2022/12/20 04:27:58;;;;;;;0.20;0.10;;;18.70;51.90;;;;;;5049714;28;20063;-62
2022/12/20 04:30:25;;;;;;;0.50;0.10;;;18.80;52.00;;;;;;5047891;28;20430;-62
2022/12/20 04:32:53;;;;;;;0.10;0.10;;;18.70;52.00;;;;;;5049649;28;20398;-62
2022/12/20 04:35:21;;;;;;;1.13;0.35;;;18.70;52.00;;;;;;5047418;28;20187;-62
2022/12/20 04:37:49;;;;;;;1.10;0.63;;;18.80;52.00;;;;;;5049107;28;20477;-62
2022/12/20 04:40:17;;;;;;;0.30;0.13;;;18.80;52.10;;;;;;5047477;28;20576;-62
2022/12/20 04:42:48;;;;;;;0.65;0.10;;;18.70;52.00;;;;;;5047835;28;20079;-62
2022/12/20 04:45:16;;;;;;;0.70;0.10;;;18.80;52.00;;;;;;5047567;28;20049;-63
2022/12/20 04:47:43;;;;;;;0.10;0.10;;;18.70;52.00;;;;;;5047846;28;20135;-62
2022/12/20 04:50:12;;;;;;;1.80;0.20;;;18.80;52.10;;;;;;5047561;28;20060;-62
2022/12/20 04:55:28;;;;;;;0.65;0.10;;;18.80;52.10;;;;;;5047335;28;20540;-63
2022/12/20 04:57:55;;;;;;;2.53;0.10;;;18.70;52.10;;;;;;5047598;28;20048;-63
2022/12/20 05:00:22;;;;;;;1.65;0.47;;;18.80;52.20;;;;;;5047382;28;20497;-62
2022/12/20 05:02:58;;;;;;;1.23;0.10;;;18.80;52.20;;;;;;5047862;28;20074;-62
2022/12/20 05:05:26;;;;;;;1.20;0.10;;;18.70;52.10;;;;;;5048342;28;20041;-62
2022/12/20 05:07:55;;;;;;;0.10;0.10;;;18.80;52.20;;;;;;5044395;28;20042;-61
2022/12/20 05:10:23;;;;;;;0.10;0.10;;;18.80;52.20;;;;;;5044042;28;20124;-62
2022/12/20 05:12:53;;;;;;;0.10;0.10;;;18.80;52.20;;;;;;5027676;28;20076;-62
2022/12/20 05:15:31;;;;;;;0.95;0.10;;;18.80;52.30;;;;;;5027307;28;20041;-62
2022/12/20 05:17:59;;;;;;;1.30;0.10;;;18.80;52.30;;;;;;5027228;28;20096;-62
2022/12/20 05:20:29;;;;;;;0.47;0.10;;;18.80;52.40;;;;;;5045996;28;20048;-62
2022/12/20 05:28:33;;;;;;;0.38;0.10;;;18.80;52.30;;;;;;5045871;28;20052;-62
2022/12/20 05:31:01;;;;;;;1.05;0.08;;;18.80;52.40;;;;;;5046464;28;20041;-59
2022/12/20 05:33:31;;;;;;;0.22;0.10;;;18.80;52.40;;;;;;5046454;28;20116;-60
2022/12/20 05:35:58;;;;;;;2.10;0.10;;;18.80;52.50;;;;;;5046715;28;20049;-61
2022/12/20 05:38:26;;;;;;;1.08;0.10;;;18.80;52.50;;;;;;5046715;28;20049;-59
2022/12/20 05:40:53;;;;;;;0.52;0.10;;;18.80;52.50;;;;;;5045937;28;20120;-59
2022/12/20 05:43:21;;;;;;;0.10;0.10;;;18.80;52.50;;;;;;5048290;28;20100;-58
2022/12/20 05:45:53;;;;;;;2.22;0.10;;;18.80;52.50;;;;;;5046597;28;20060;-60
2022/12/20 05:48:29;;;;;;;0.10;0.10;;;18.80;52.50;;;;;;5046465;28;20775;-60
2022/12/20 05:50:56;;;;;;;0.80;0.10;;;18.80;52.40;;;;;;5047156;28;20076;-61
2022/12/20 05:53:29;;;;;;;0.40;0.20;;;18.80;52.80;;;;;;5063579;28;20393;-60
2022/12/20 05:56:01;;;;;;;0.90;0.10;;;18.90;52.60;;;;;;5066423;28;20409;-60
2022/12/20 05:58:34;;;;;;;0.43;0.00;;;18.90;52.60;;;;;;5058514;28;20041;-61
2022/12/20 06:01:07;;;;;;;0.10;0.00;;;18.90;52.60;;;;;;5046048;28;20053;-60
2022/12/20 06:03:39;;;;;;;0.45;0.03;;;18.90;52.60;;;;;;5045935;28;20517;-61
2022/12/20 06:06:17;;;;;;;0.20;0.10;;;18.90;52.60;;;;;;5047716;28;20722;-61
2022/12/20 06:08:47;;;;;;;1.17;0.10;;;18.90;52.60;;;;;;5046237;28;20053;-60
2022/12/20 06:11:23;;;;;;;0.85;0.10;;;18.90;52.60;;;;;;5046023;28;20413;-61
2022/12/20 06:13:56;;;;;;;3.47;0.10;;;18.90;52.60;;;;;;5047621;28;20460;-61
2022/12/20 06:16:25;;;;;;;0.20;0.20;;;18.90;52.60;;;;;;5045799;28;20521;-60
2022/12/20 06:18:54;;;;;;;0.52;0.10;;;18.90;52.50;;;;;;5045924;28;20071;-60
2022/12/20 06:21:21;;;;;;;0.20;0.10;;;18.90;52.50;;;;;;5046045;28;20056;-60
2022/12/20 06:23:49;;;;;;;0.85;0.10;;;18.90;52.50;;;;;;5045980;28;20049;-60
2022/12/20 06:26:17;;;;;;;1.00;0.30;;;18.90;52.50;;;;;;5045924;28;20079;-60
2022/12/20 06:28:51;;;;;;;1.00;0.10;;;19.00;52.60;;;;;;5044935;28;20132;-60
2022/12/20 06:31:23;;;;;;;0.17;0.10;;;19.00;52.50;;;;;;5045200;28;20041;-60
2022/12/20 06:33:54;;;;;;;2.65;0.10;;;19.00;52.50;;;;;;5045638;28;20124;-61
2022/12/20 06:36:23;;;;;;;0.17;0.05;;;19.00;52.50;;;;;;5045968;28;20041;-60
2022/12/20 06:38:51;;;;;;;0.95;0.10;;;19.00;52.40;;;;;;5045740;28;20052;-60
2022/12/20 06:41:19;;;;;;;0.30;0.00;;;19.00;52.40;;;;;;5045497;28;20041;-60
2022/12/20 06:43:46;;;;;;;4.60;0.75;;;19.00;52.40;;;;;;5045495;28;20140;-60
2022/12/20 06:46:13;;;;;;;0.10;0.10;;;19.00;52.40;;;;;;5045010;28;20049;-60
2022/12/20 06:48:40;;;;;;;0.17;0.00;;;19.00;52.30;;;;;;5045561;28;20037;-59
2022/12/20 06:51:11;;;;;;;1.83;0.10;;;19.00;52.30;;;;;;5045244;28;20416;-60
2022/12/20 06:53:38;;;;;;;0.50;0.10;;;19.00;52.30;;;;;;5045465;28;20045;-60
2022/12/20 06:56:06;;;;;;;0.82;0.20;;;19.00;52.20;;;;;;5043411;28;20041;-59
2022/12/20 06:58:34;;;;;;;0.03;0.00;;;19.00;51.80;;;;;;5044941;28;20765;-66
2022/12/20 07:01:04;;;;;;;0.43;0.10;;;19.10;52.10;;;;;;5044539;28;20047;-56
2022/12/20 07:03:31;;;;;;;1.10;0.10;;;19.10;52.50;;;;;;5046693;28;20045;-60
2022/12/20 07:05:58;;;;;;;0.10;0.10;;;19.20;52.80;;;;;;5045412;28;20579;-56
2022/12/20 07:08:26;;;;;;;0.75;0.00;;;19.30;52.90;;;;;;5046550;28;20150;-59
2022/12/20 07:10:54;;;;;;;0.10;0.00;;;19.40;52.90;;;;;;5046573;28;20040;-60
2022/12/20 07:13:21;;;;;;;0.40;0.10;;;19.50;52.80;;;;;;5046267;28;20072;-55
2022/12/20 07:15:48;;;;;;;1.30;0.00;;;19.70;52.80;;;;;;5046312;28;20124;-59
2022/12/20 07:18:15;;;;;;;3.60;0.10;;;19.80;52.60;;;;;;5046145;28;20041;-52
2022/12/20 07:20:42;;;;;;;0.55;0.10;;;19.90;52.40;;;;;;5046228;28;20087;-59
2022/12/20 07:23:09;;;;;;;0.60;0.45;;;20.00;52.30;;;;;;5030146;28;20390;-56
2022/12/20 07:25:37;;;;;;;0.35;0.00;;;20.10;52.20;;;;;;5046119;28;20577;-58
2022/12/20 07:28:05;;;;;;;0.30;0.10;;;20.30;52.10;;;;;;5045999;28;20153;-54
2022/12/20 07:30:33;;;;;;;0.10;0.00;;;20.40;52.10;;;;;;5045795;28;20037;-57
2022/12/20 07:33:00;;;;;;;0.75;0.10;;;20.50;52.50;;;;;;5045748;28;20063;-56
2022/12/20 07:35:27;;;;;;;1.02;0.08;;;20.70;51.90;;;;;;5046100;28;20148;-61
2022/12/20 07:37:54;;;;;;;0.10;0.10;;;20.70;51.80;;;;;;5046054;28;20103;-56
2022/12/20 07:40:21;;;;;;;0.90;0.10;;;20.90;51.70;;;;;;5046723;28;20159;-71
2022/12/20 07:42:50;;;;;;;0.30;0.10;;;21.00;51.80;;;;;;5049914;28;20057;-57
2022/12/20 07:45:18;;;;;;;0.75;0.00;;;21.10;51.80;;;;;;5049561;28;20051;-59
2022/12/20 07:47:45;;;;;;;1.70;0.10;;;21.30;51.70;;;;;;5049700;28;20044;-53
2022/12/20 07:50:12;;;;;;;1.80;0.10;;;21.30;51.50;;;;;;5048224;28;20131;-51
2022/12/20 07:52:42;;;;;;;0.52;0.20;;;21.50;51.50;;;;;;5036632;28;20088;-54
2022/12/20 07:55:12;;;;;;;3.13;0.10;;;21.60;51.40;;;;;;5033646;28;20041;-58
2022/12/20 07:57:43;;;;;;;0.10;0.10;;;21.60;51.10;;;;;;5048083;28;20087;-62
2022/12/20 08:00:13;;;;;;;0.35;0.10;;;21.70;51.00;;;;;;5047769;28;20784;-60
2022/12/20 08:02:44;;;;;;;2.58;0.10;;;21.90;51.00;;;;;;5050691;28;20041;-56
2022/12/20 08:05:12;;;;;;;0.65;0.08;;;22.00;51.00;;;;;;5040643;28;20045;-56
2022/12/20 08:07:41;;;;;;;2.83;0.10;;;22.10;50.80;;;;;;5049295;28;20161;-61
2022/12/20 08:10:11;;;;;;;5.68;0.77;;;22.20;50.60;;;;;;5049361;28;20464;-63
2022/12/20 08:12:38;;;;;;;0.25;0.00;;;22.40;50.50;;;;;;5049214;28;20468;-60
2022/12/20 08:15:07;;;;;;;3.70;0.10;;;22.50;50.30;;;;;;5049145;28;20144;-59
2022/12/20 08:17:36;;;;;;;0.65;0.10;;;22.60;49.80;;;;;;5048101;28;20055;-60
2022/12/20 08:20:05;;;;;;;0.75;0.05;;;22.70;49.40;;;;;;5048799;28;20090;-60
2022/12/20 08:22:33;;;;;;;3.40;0.10;;;22.80;49.10;;;;;;5064552;28;20052;-62
2022/12/20 08:25:00;;;;;;;0.10;0.10;;;22.80;48.70;;;;;;5048668;28;20041;-58
2022/12/20 08:27:27;;;;;;;0.35;0.00;;;22.80;48.40;;;;;;5049004;28;20871;-61
2022/12/20 08:29:55;;;;;;;0.25;0.10;;;22.80;48.20;;;;;;5047294;28;20077;-60
2022/12/20 08:32:22;;;;;;;1.25;0.10;;;22.80;48.00;;;;;;5048901;28;20044;-62
2022/12/20 08:34:52;;;;;;;3.47;0.10;;;22.80;47.80;;;;;;5048900;28;20078;-63
2022/12/20 08:37:19;;;;;;;0.82;0.00;;;22.80;47.80;;;;;;5049017;28;20076;-62
2022/12/20 08:39:47;;;;;;;0.40;0.03;;;22.80;47.80;;;;;;5049237;28;20102;-66
2022/12/20 08:42:14;;;;;;;1.67;0.00;;;22.80;47.70;;;;;;5049276;28;20052;-68
2022/12/20 08:44:41;;;;;;;0.30;0.30;;;22.80;47.60;;;;;;5049795;28;20048;-66
2022/12/20 08:47:09;;;;;;;0.45;0.08;;;22.80;47.50;;;;;;5049275;28;20037;-65
2022/12/20 08:49:36;;;;;;;1.58;0.10;;;22.80;47.50;;;;;;5051752;28;20045;-71
2022/12/20 08:52:05;;;;;;;0.10;0.00;;;22.80;47.30;;;;;;5049465;28;20056;-62
2022/12/20 08:54:32;;;;;;;2.45;0.10;;;22.80;47.40;;;;;;5048849;28;20048;-63
2022/12/20 08:56:59;;;;;;;1.23;0.10;;;22.80;47.30;;;;;;5045511;28;20079;-56
2022/12/20 08:59:26;;;;;;;0.55;0.30;;;22.80;47.20;;;;;;5048160;28;20043;-60
2022/12/20 09:01:54;;;;;;;0.00;0.00;;;22.80;47.00;;;;;;5048419;28;20494;-61
2022/12/20 09:04:21;;;;;;;0.20;0.10;;;22.80;46.90;;;;;;5048773;28;20040;-63
2022/12/20 09:06:48;;;;;;;10.60;0.20;;;22.80;46.70;;;;;;5047895;28;20091;-52
2022/12/20 09:09:17;;;;;;;5.32;0.20;;;22.80;46.90;;;;;;5047334;28;20094;-58
2022/12/20 09:11:44;;;;;;;0.30;0.10;;;22.80;47.00;;;;;;5047961;28;20045;-60
2022/12/20 09:14:11;;;;;;;6.07;0.15;;;22.80;47.00;;;;;;5048315;28;20160;-58
2022/12/20 09:16:38;;;;;;;3.60;0.20;;;22.80;47.00;;;;;;5048119;28;20040;-55
2022/12/20 09:19:05;;;;;;;15.77;1.20;;;22.80;47.10;;;;;;5048695;28;20029;-57
2022/12/20 09:21:33;;;;;;;7.68;0.40;;;22.80;47.20;;;;;;5048002;28;20037;-56
2022/12/20 09:24:00;;;;;;;11.98;0.15;;;22.80;47.20;;;;;;5047999;28;20083;-57
2022/12/20 09:26:29;;;;;;;5.85;1.17;;;22.80;47.10;;;;;;5047666;28;20592;-56
2022/12/20 09:28:56;;;;;;;6.85;0.10;;;22.90;47.10;;;;;;5047523;28;20051;-56
2022/12/20 09:31:25;;;;;;;8.68;0.85;;;22.90;47.10;;;;;;5047819;28;20505;-54
2022/12/20 09:33:56;;;;;;;8.05;0.32;;;22.80;47.90;;;;;;5046499;28;20055;-55
2022/12/20 09:36:24;;;;;;;5.88;0.10;;;22.90;47.60;;;;;;5047864;28;20049;-58
2022/12/20 09:38:52;;;;;;;1.33;0.17;;;22.90;47.70;;;;;;5047626;28;20059;-60
2022/12/20 09:41:26;;;;;;;1.25;0.20;;;22.90;47.80;;;;;;5047267;28;20501;-58
2022/12/20 09:43:54;;;;;;;7.35;0.10;;;23.00;47.80;;;;;;5047753;28;20386;-58
2022/12/20 09:46:23;;;;;;;2.97;0.20;;;23.00;47.80;;;;;;5046061;28;20033;-59
2022/12/20 09:48:50;;;;;;;1.27;0.98;;;23.10;47.70;;;;;;5047467;28;20083;-58
2022/12/20 09:51:33;;;;;;;3.45;0.43;;;23.20;47.60;;;;;;5048024;28;20051;-59
2022/12/20 09:54:08;;;;;;;4.32;0.15;;;23.30;47.40;;;;;;5050868;28;20126;-61
2022/12/20 09:56:39;;;;;;;1.30;0.10;;;23.40;47.70;;;;;;5048056;28;20044;-63
2022/12/20 09:59:12;;;;;;;6.32;0.38;;;23.40;47.20;;;;;;5047396;28;20903;-62
2022/12/20 10:01:44;;;;;;;3.75;0.10;;;23.60;47.20;;;;;;5047315;28;20373;-61
2022/12/20 10:04:23;;;;;;;0.22;0.10;;;23.80;47.20;;;;;;5045114;28;20040;-61
2022/12/20 10:07:02;;;;;;;2.15;0.40;;;23.90;47.10;;;;;;5046883;28;20049;-56
2022/12/20 10:09:53;;;;;;;0.82;0.10;;;24.10;46.90;;;;;;5046858;28;20494;-59
2022/12/20 10:12:30;;;;;;;6.32;0.10;;;24.30;46.70;;;;;;5047021;28;20845;-56
2022/12/20 10:15:19;;;;;;;2.08;0.90;;;24.40;46.60;;;;;;5047028;28;20080;-56
2022/12/20 10:18:12;;;;;;;1.40;0.20;;;24.60;46.40;;;;;;5047155;28;20068;-57
2022/12/20 10:20:53;;;;;;;0.15;0.10;;;24.80;46.20;;;;;;5045913;28;20041;-56
2022/12/20 10:23:28;;;;;;;0.20;0.20;;;24.90;45.90;;;;;;5045096;28;20477;-57
2022/12/20 10:25:57;;;;;;;0.95;0.10;;;25.10;45.70;;;;;;5047092;28;20444;-61
2022/12/20 10:28:27;;;;;;;0.68;0.10;;;25.20;45.50;;;;;;5046908;28;20047;-61
2022/12/20 10:30:59;;;;;;;2.45;0.13;;;25.30;45.30;;;;;;5045407;28;20044;-61
2022/12/20 10:33:29;;;;;;;0.22;0.10;;;25.50;45.10;;;;;;5047762;28;20037;-69
2022/12/20 10:36:16;;;;;;;0.50;0.10;;;25.60;44.80;;;;;;5053164;28;20037;-71
2022/12/20 10:38:45;;;;;;;8.23;0.10;;;25.60;44.30;;;;;;5054393;28;20053;-72
2022/12/20 10:41:17;;;;;;;0.68;0.10;;;25.70;43.90;;;;;;5055225;28;20053;-71
2022/12/20 10:43:47;;;;;;;0.43;0.10;;;25.60;43.50;;;;;;5037537;28;20286;-73
2022/12/20 10:46:16;;;;;;;0.82;0.10;;;25.60;43.40;;;;;;5055188;28;20049;-74
2022/12/20 10:48:46;;;;;;;0.20;0.10;;;25.60;43.20;;;;;;5054795;28;20033;-74
2022/12/20 10:51:16;;;;;;;2.55;0.10;;;25.50;43.10;;;;;;5055755;28;20037;-72
2022/12/20 10:53:55;;;;;;;0.77;0.10;;;25.40;43.10;;;;;;5054253;28;20040;-73
2022/12/20 10:56:26;;;;;;;3.90;0.10;;;25.30;43.00;;;;;;5057576;28;20850;-73
2022/12/20 10:58:59;;;;;;;0.20;0.20;;;25.30;43.00;;;;;;5055246;28;20043;-74
2022/12/20 11:01:31;;;;;;;0.20;0.05;;;25.20;43.50;;;;;;5056188;28;20079;-74
2022/12/20 11:04:01;;;;;;;0.40;0.10;;;25.10;42.80;;;;;;5056371;28;20037;-74
2022/12/20 11:06:41;;;;;;;0.75;0.15;;;25.00;42.80;;;;;;5051375;28;20578;-74
2022/12/20 11:09:25;;;;;;;0.22;0.20;;;24.90;42.80;;;;;;5057450;28;20115;-74
2022/12/20 11:12:02;;;;;;;0.73;0.10;;;24.90;42.80;;;;;;5055289;28;20041;-74
2022/12/20 11:14:31;;;;;;;1.38;0.10;;;24.80;42.90;;;;;;5051999;28;20048;-69
2022/12/20 11:17:04;;;;;;;0.95;0.10;;;24.70;43.00;;;;;;5068654;28;20043;-69
2022/12/20 11:19:50;;;;;;;0.65;0.00;;;24.70;43.10;;;;;;5035871;28;20072;-69
2022/12/20 11:22:27;;;;;;;0.55;0.10;;;24.60;43.10;;;;;;5052837;28;20051;-69
2022/12/20 11:25:05;;;;;;;0.40;0.10;;;24.60;43.10;;;;;;5051760;28;20053;-67
2022/12/20 11:27:40;;;;;;;1.35;0.10;;;24.60;43.20;;;;;;5051066;28;20403;-67
2022/12/20 11:30:18;;;;;;;0.30;0.10;;;24.50;43.20;;;;;;5051058;28;20046;-67
2022/12/20 11:33:30;;;;;;;1.33;0.10;;;24.50;43.20;;;;;;5051331;28;20127;-67
2022/12/20 11:36:05;;;;;;;0.30;0.10;;;24.40;43.20;;;;;;5044805;28;20045;-66
2022/12/20 11:38:40;;;;;;;0.28;0.10;;;24.30;43.30;;;;;;5050833;28;20041;-65
2022/12/20 11:41:20;;;;;;;0.53;0.10;;;24.30;43.40;;;;;;5051337;28;20083;-67
2022/12/20 11:44:02;;;;;;;1.60;0.20;;;24.20;43.50;;;;;;5051238;28;20052;-68
2022/12/20 11:46:43;;;;;;;1.30;0.10;;;24.20;43.60;;;;;;5065708;28;20056;-68
2022/12/20 11:49:39;;;;;;;0.70;0.13;;;24.10;43.70;;;;;;5071216;28;20094;-66
2022/12/20 11:52:17;;;;;;;0.20;0.20;;;24.00;43.70;;;;;;5067287;28;20040;-67
2022/12/20 11:54:48;;;;;;;0.55;0.10;;;24.00;43.80;;;;;;5071346;28;20070;-67
2022/12/20 11:57:23;;;;;;;1.50;0.30;;;23.80;43.80;;;;;;5071231;28;20053;-68
2022/12/20 11:59:54;;;;;;;1.48;0.10;;;23.80;43.90;;;;;;5058686;28;20497;-69
2022/12/20 12:02:28;;;;;;;0.90;0.10;;;23.80;44.00;;;;;;5052423;28;20619;-68
2022/12/20 12:04:59;;;;;;;0.20;0.10;;;23.70;44.10;;;;;;5052207;28;20049;-69
2022/12/20 12:07:31;;;;;;;2.35;0.20;;;23.60;44.20;;;;;;5049311;28;20572;-69
2022/12/20 12:10:03;;;;;;;0.63;0.63;;;23.50;44.80;;;;;;5045575;28;20042;-68
2022/12/20 12:12:34;;;;;;;1.00;0.10;;;23.50;44.40;;;;;;5051981;28;20049;-69
2022/12/20 12:15:06;;;;;;;0.98;0.10;;;23.40;44.50;;;;;;5051310;28;20059;-67
2022/12/20 12:17:41;;;;;;;0.55;0.10;;;23.40;44.70;;;;;;5050044;28;20049;-67
2022/12/20 12:20:23;;;;;;;1.30;0.08;;;23.30;44.70;;;;;;5048565;28;20699;-68
2022/12/20 12:22:59;;;;;;;0.93;0.10;;;23.20;44.80;;;;;;5050354;28;20091;-67
2022/12/20 12:25:27;;;;;;;0.93;0.10;;;23.20;45.00;;;;;;5050683;28;20593;-68
2022/12/20 12:27:54;;;;;;;2.05;0.05;;;23.10;45.00;;;;;;5049406;28;20064;-67
2022/12/20 12:30:36;;;;;;;1.90;0.10;;;23.00;45.10;;;;;;5049683;28;20041;-67
2022/12/20 12:33:06;;;;;;;0.10;0.10;;;23.00;45.20;;;;;;5050708;28;20041;-67
2022/12/20 12:36:04;;;;;;;0.10;0.10;;;22.90;45.30;;;;;;5049740;28;20563;-67
2022/12/20 12:38:56;;;;;;;0.30;0.10;;;22.90;45.30;;;;;;5050576;28;20045;-67
2022/12/20 12:41:40;;;;;;;1.95;0.10;;;22.80;45.50;;;;;;5051058;28;20080;-69
2022/12/20 12:44:35;;;;;;;0.20;0.10;;;22.80;45.60;;;;;;5050551;28;20513;-67
2022/12/20 12:47:07;;;;;;;0.43;0.10;;;22.70;45.70;;;;;;5049463;28;20037;-67
2022/12/20 12:49:36;;;;;;;0.38;0.10;;;22.70;45.90;;;;;;5049921;28;20512;-67
2022/12/20 12:52:06;;;;;;;0.55;0.10;;;22.60;45.90;;;;;;5049690;28;20140;-70
2022/12/20 12:54:38;;;;;;;0.50;0.10;;;22.60;46.00;;;;;;5049167;28;20070;-68
2022/12/20 12:57:12;;;;;;;0.85;0.10;;;22.60;46.20;;;;;;5050322;28;20049;-67
2022/12/20 12:59:46;;;;;;;1.27;0.30;;;22.50;46.20;;;;;;5047935;28;20044;-69
2022/12/20 13:02:35;;;;;;;0.50;0.20;;;22.50;46.00;;;;;;5048154;28;20049;-62
2022/12/20 13:05:32;;;;;;;0.88;0.10;;;22.40;46.20;;;;;;5048114;28;20047;-63
2022/12/20 13:08:00;;;;;;;2.83;0.10;;;22.40;46.60;;;;;;5048346;28;20048;-63
2022/12/20 13:11:02;;;;;;;3.20;0.10;;;22.30;46.90;;;;;;5048585;28;20044;-63
2022/12/20 13:13:29;;;;;;;1.85;0.10;;;22.30;47.10;;;;;;5006341;28;20491;-68
2022/12/20 13:16:13;;;;;;;0.73;0.10;;;22.30;47.50;;;;;;4990911;28;20054;-69